sensor_id;sensor_type;location;lat;lon;timestamp;pressure;altitude;pressure_sealevel;temperature;humidity
59513;BME280;45330;51.634;5.562;2023-04-06T00:00:24;101766.44;;;1.90;100.00
59513;BME280;45330;51.634;5.562;2023-04-06T00:02:50;101755.94;;;1.85;100.00
59513;BME280;45330;51.634;5.562;2023-04-06T00:05:17;101761.06;;;1.85;100.00
59513;BME280;45330;51.634;5.562;2023-04-06T00:07:43;101761.06;;;1.85;100.00
59513;BME280;45330;51.634;5.562;2023-04-06T00:10:08;101753.25;;;1.82;100.00
59513;BME280;45330;51.634;5.562;2023-04-06T00:12:34;101752.38;;;1.82;100.00
59513;BME280;45330;51.634;5.562;2023-04-06T00:14:59;101755.69;;;1.79;100.00
59513;BME280;45330;51.634;5.562;2023-04-06T00:17:26;101753.06;;;1.78;100.00
59513;BME280;45330;51.634;5.562;2023-04-06T00:19:52;101757.09;;;1.73;100.00
59513;BME280;45330;51.634;5.562;2023-04-06T00:22:17;101754.31;;;1.68;100.00
59513;BME280;45330;51.634;5.562;2023-04-06T00:24:43;101747.16;;;1.61;100.00
59513;BME280;45330;51.634;5.562;2023-04-06T00:27:08;101737.16;;;1.47;100.00
59513;BME280;45330;51.634;5.562;2023-04-06T00:29:33;101742.56;;;1.53;100.00
59513;BME280;45330;51.634;5.562;2023-04-06T00:31:59;101738.13;;;1.49;100.00
59513;BME280;45330;51.634;5.562;2023-04-06T00:34:24;101743.97;;;1.47;100.00
59513;BME280;45330;51.634;5.562;2023-04-06T00:36:49;101715.25;;;1.36;100.00
59513;BME280;45330;51.634;5.562;2023-04-06T00:39:15;101719.47;;;1.34;100.00
59513;BME280;45330;51.634;5.562;2023-04-06T00:41:46;101702.44;;;1.36;100.00
59513;BME280;45330;51.634;5.562;2023-04-06T00:44:14;101720.16;;;1.49;100.00
59513;BME280;45330;51.634;5.562;2023-04-06T00:46:40;101719.19;;;1.47;100.00
59513;BME280;45330;51.634;5.562;2023-04-06T00:49:05;101721.22;;;1.54;100.00
59513;BME280;45330;51.634;5.562;2023-04-06T00:51:31;101714.50;;;1.57;100.00
59513;BME280;45330;51.634;5.562;2023-04-06T00:53:56;101721.44;;;1.59;100.00
59513;BME280;45330;51.634;5.562;2023-04-06T00:56:22;101718.72;;;1.56;100.00
59513;BME280;45330;51.634;5.562;2023-04-06T00:58:48;101694.03;;;1.39;100.00
59513;BME280;45330;51.634;5.562;2023-04-06T01:01:14;101712.16;;;1.43;100.00
59513;BME280;45330;51.634;5.562;2023-04-06T01:03:40;101709.47;;;1.40;100.00
59513;BME280;45330;51.634;5.562;2023-04-06T01:06:07;101691.13;;;1.31;100.00
59513;BME280;45330;51.634;5.562;2023-04-06T01:08:32;101694.03;;;1.39;100.00
59513;BME280;45330;51.634;5.562;2023-04-06T01:10:59;101676.53;;;1.30;100.00
59513;BME280;45330;51.634;5.562;2023-04-06T01:13:26;101684.63;;;1.39;100.00
59513;BME280;45330;51.634;5.562;2023-04-06T01:15:52;101694.16;;;1.42;100.00
59513;BME280;45330;51.634;5.562;2023-04-06T01:18:17;101690.91;;;1.46;100.00
59513;BME280;45330;51.634;5.562;2023-04-06T01:20:43;101689.25;;;1.46;100.00
59513;BME280;45330;51.634;5.562;2023-04-06T01:23:08;101695.31;;;1.48;100.00
59513;BME280;45330;51.634;5.562;2023-04-06T01:25:34;101676.19;;;1.42;100.00
59513;BME280;45330;51.634;5.562;2023-04-06T01:27:59;101697.13;;;1.51;100.00
59513;BME280;45330;51.634;5.562;2023-04-06T01:30:25;101686.81;;;1.49;100.00
59513;BME280;45330;51.634;5.562;2023-04-06T01:32:50;101684.44;;;1.54;100.00
59513;BME280;45330;51.634;5.562;2023-04-06T01:35:18;101674.91;;;1.51;100.00
59513;BME280;45330;51.634;5.562;2023-04-06T01:37:44;101685.38;;;1.56;100.00
59513;BME280;45330;51.634;5.562;2023-04-06T01:40:10;101662.22;;;1.54;100.00
59513;BME280;45330;51.634;5.562;2023-04-06T01:42:36;101675.47;;;1.64;100.00
59513;BME280;45330;51.634;5.562;2023-04-06T01:45:02;101670.47;;;1.67;100.00
59513;BME280;45330;51.634;5.562;2023-04-06T01:47:27;101665.47;;;1.70;100.00
59513;BME280;45330;51.634;5.562;2023-04-06T01:49:53;101658.78;;;1.74;100.00
59513;BME280;45330;51.634;5.562;2023-04-06T01:52:19;101637.19;;;1.68;100.00
59513;BME280;45330;51.634;5.562;2023-04-06T01:54:46;101655.78;;;1.84;100.00
59513;BME280;45330;51.634;5.562;2023-04-06T01:57:11;101657.75;;;1.89;100.00
59513;BME280;45330;51.634;5.562;2023-04-06T01:59:36;101664.03;;;1.96;100.00
59513;BME280;45330;51.634;5.562;2023-04-06T02:02:02;101640.69;;;1.90;100.00
59513;BME280;45330;51.634;5.562;2023-04-06T02:04:27;101647.94;;;2.00;100.00
59513;BME280;45330;51.634;5.562;2023-04-06T02:06:53;101635.72;;;1.95;100.00
59513;BME280;45330;51.634;5.562;2023-04-06T02:09:18;101619.31;;;1.91;100.00
59513;BME280;45330;51.634;5.562;2023-04-06T02:11:43;101642.19;;;2.06;100.00
59513;BME280;45330;51.634;5.562;2023-04-06T02:14:09;101619.47;;;1.94;100.00
59513;BME280;45330;51.634;5.562;2023-04-06T02:16:34;101630.22;;;2.06;100.00
59513;BME280;45330;51.634;5.562;2023-04-06T02:19:00;101609.38;;;1.99;100.00
59513;BME280;45330;51.634;5.562;2023-04-06T02:21:25;101629.47;;;2.09;100.00
59513;BME280;45330;51.634;5.562;2023-04-06T02:23:50;101626.16;;;2.12;100.00
59513;BME280;45330;51.634;5.562;2023-04-06T02:26:16;101630.66;;;2.17;100.00
59513;BME280;45330;51.634;5.562;2023-04-06T02:28:42;101629.78;;;2.17;100.00
59513;BME280;45330;51.634;5.562;2023-04-06T02:31:08;101600.31;;;2.07;100.00
59513;BME280;45330;51.634;5.562;2023-04-06T02:33:33;101617.94;;;2.20;100.00
59513;BME280;45330;51.634;5.562;2023-04-06T02:35:59;101608.56;;;2.21;100.00
59513;BME280;45330;51.634;5.562;2023-04-06T02:38:24;101616.44;;;2.26;100.00
59513;BME280;45330;51.634;5.562;2023-04-06T02:40:50;101616.56;;;2.29;100.00
59513;BME280;45330;51.634;5.562;2023-04-06T02:43:15;101583.59;;;2.17;100.00
59513;BME280;45330;51.634;5.562;2023-04-06T02:45:42;101587.13;;;2.20;100.00
59513;BME280;45330;51.634;5.562;2023-04-06T02:48:07;101602.16;;;2.32;100.00
59513;BME280;45330;51.634;5.562;2023-04-06T02:50:32;101577.88;;;2.24;100.00
59513;BME280;45330;51.634;5.562;2023-04-06T02:52:58;101583.00;;;2.24;100.00
59513;BME280;45330;51.634;5.562;2023-04-06T02:55:23;101578.69;;;2.23;100.00
59513;BME280;45330;51.634;5.562;2023-04-06T02:57:49;101572.63;;;2.21;100.00
59513;BME280;45330;51.634;5.562;2023-04-06T03:00:14;101593.56;;;2.32;100.00
59513;BME280;45330;51.634;5.562;2023-04-06T03:02:40;101567.59;;;2.24;100.00
59513;BME280;45330;51.634;5.562;2023-04-06T03:05:06;101586.94;;;2.37;100.00
59513;BME280;45330;51.634;5.562;2023-04-06T03:07:31;101591.38;;;2.41;100.00
59513;BME280;45330;51.634;5.562;2023-04-06T03:09:57;101584.47;;;2.40;100.00
59513;BME280;45330;51.634;5.562;2023-04-06T03:12:22;101592.25;;;2.42;100.00
59513;BME280;45330;51.634;5.562;2023-04-06T03:14:47;101588.88;;;2.43;100.00
59513;BME280;45330;51.634;5.562;2023-04-06T03:17:13;101588.91;;;2.44;100.00
59513;BME280;45330;51.634;5.562;2023-04-06T03:19:38;101575.16;;;2.42;100.00
59513;BME280;45330;51.634;5.562;2023-04-06T03:22:04;101575.31;;;2.47;100.00
59513;BME280;45330;51.634;5.562;2023-04-06T03:24:29;101583.19;;;2.51;100.00
59513;BME280;45330;51.634;5.562;2023-04-06T03:26:54;101576.31;;;2.50;100.00
59513;BME280;45330;51.634;5.562;2023-04-06T03:29:20;101559.81;;;2.44;100.00
59513;BME280;45330;51.634;5.562;2023-04-06T03:31:45;101579.06;;;2.55;100.00
59513;BME280;45330;51.634;5.562;2023-04-06T03:34:11;101580.84;;;2.56;100.00
59513;BME280;45330;51.634;5.562;2023-04-06T03:36:36;101575.56;;;2.53;100.00
59513;BME280;45330;51.634;5.562;2023-04-06T03:39:02;101574.75;;;2.54;100.00
59513;BME280;45330;51.634;5.562;2023-04-06T03:41:27;101561.72;;;2.49;100.00
59513;BME280;45330;51.634;5.562;2023-04-06T03:43:52;101576.56;;;2.56;100.00
59513;BME280;45330;51.634;5.562;2023-04-06T03:46:18;101574.03;;;2.58;100.00
59513;BME280;45330;51.634;5.562;2023-04-06T03:48:43;101541.94;;;2.47;100.00
59513;BME280;45330;51.634;5.562;2023-04-06T03:51:09;101559.38;;;2.55;100.00
59513;BME280;45330;51.634;5.562;2023-04-06T03:53:34;101566.28;;;2.56;100.00
59513;BME280;45330;51.634;5.562;2023-04-06T03:56:01;101562.84;;;2.56;100.00
59513;BME280;45330;51.634;5.562;2023-04-06T03:58:27;101539.19;;;2.42;100.00
59513;BME280;45330;51.634;5.562;2023-04-06T04:00:52;101544.28;;;2.40;100.00
59513;BME280;45330;51.634;5.562;2023-04-06T04:03:18;101560.84;;;2.49;100.00
59513;BME280;45330;51.634;5.562;2023-04-06T04:05:43;101554.47;;;2.39;100.00
59513;BME280;45330;51.634;5.562;2023-04-06T04:08:08;101537.72;;;2.26;100.00
59513;BME280;45330;51.634;5.562;2023-04-06T04:10:34;101544.59;;;2.27;100.00
59513;BME280;45330;51.634;5.562;2023-04-06T04:12:59;101562.06;;;2.36;100.00
59513;BME280;45330;51.634;5.562;2023-04-06T04:15:25;101565.44;;;2.35;100.00
59513;BME280;45330;51.634;5.562;2023-04-06T04:17:50;101551.56;;;2.30;100.00
59513;BME280;45330;51.634;5.562;2023-04-06T04:20:15;101551.72;;;2.34;100.00
59513;BME280;45330;51.634;5.562;2023-04-06T04:22:41;101537.00;;;2.30;100.00
59513;BME280;45330;51.634;5.562;2023-04-06T04:25:07;101553.59;;;2.38;100.00
59513;BME280;45330;51.634;5.562;2023-04-06T04:27:33;101560.50;;;2.39;100.00
59513;BME280;45330;51.634;5.562;2023-04-06T04:29:58;101561.53;;;2.45;100.00
59513;BME280;45330;51.634;5.562;2023-04-06T04:32:23;101538.25;;;2.40;100.00
59513;BME280;45330;51.634;5.562;2023-04-06T04:34:55;101558.41;;;2.52;100.00
59513;BME280;45330;51.634;5.562;2023-04-06T04:37:20;101554.88;;;2.50;100.00
59513;BME280;45330;51.634;5.562;2023-04-06T04:39:46;101546.91;;;2.42;100.00
59513;BME280;45330;51.634;5.562;2023-04-06T04:42:11;101560.84;;;2.49;100.00
59513;BME280;45330;51.634;5.562;2023-04-06T04:44:36;101545.91;;;2.38;100.00
59513;BME280;45330;51.634;5.562;2023-04-06T04:47:02;101550.50;;;2.47;100.00
59513;BME280;45330;51.634;5.562;2023-04-06T04:49:27;101537.13;;;2.33;100.00
59513;BME280;45330;51.634;5.562;2023-04-06T04:51:53;101553.72;;;2.42;100.00
59513;BME280;45330;51.634;5.562;2023-04-06T04:54:18;101554.59;;;2.42;100.00
59513;BME280;45330;51.634;5.562;2023-04-06T04:56:44;101538.19;;;2.38;100.00
59513;BME280;45330;51.634;5.562;2023-04-06T04:59:10;101536.25;;;2.33;100.00
59513;BME280;45330;51.634;5.562;2023-04-06T05:01:36;101550.44;;;2.46;100.00
59513;BME280;45330;51.634;5.562;2023-04-06T05:04:01;101553.97;;;2.48;100.00
59513;BME280;45330;51.634;5.562;2023-04-06T05:06:27;101536.47;;;2.39;100.00
59513;BME280;45330;51.634;5.562;2023-04-06T05:08:52;101541.75;;;2.42;100.00
59513;BME280;45330;51.634;5.562;2023-04-06T05:11:18;101558.63;;;2.58;100.00
59513;BME280;45330;51.634;5.562;2023-04-06T05:13:43;101557.22;;;2.66;100.00
59513;BME280;45330;51.634;5.562;2023-04-06T05:16:09;101557.69;;;2.79;100.00
59513;BME280;45330;51.634;5.562;2023-04-06T05:18:34;101559.78;;;2.89;100.00
59513;BME280;45330;51.634;5.562;2023-04-06T05:21:00;101554.84;;;2.95;100.00
59513;BME280;45330;51.634;5.562;2023-04-06T05:23:25;101557.16;;;3.12;100.00
59513;BME280;45330;51.634;5.562;2023-04-06T05:25:51;101554.31;;;3.28;100.00
59513;BME280;45330;51.634;5.562;2023-04-06T05:28:16;101555.56;;;3.39;100.00
59513;BME280;45330;51.634;5.562;2023-04-06T05:30:43;101538.94;;;3.30;100.00
59513;BME280;45330;51.634;5.562;2023-04-06T05:33:10;101546.88;;;3.36;100.00
59513;BME280;45330;51.634;5.562;2023-04-06T05:35:35;101546.09;;;3.38;100.00
59513;BME280;45330;51.634;5.562;2023-04-06T05:38:01;101548.69;;;3.38;100.00
59513;BME280;45330;51.634;5.562;2023-04-06T05:40:26;101531.31;;;3.33;100.00
59513;BME280;45330;51.634;5.562;2023-04-06T05:42:52;101545.34;;;3.41;100.00
59513;BME280;45330;51.634;5.562;2023-04-06T05:45:17;101535.97;;;3.43;100.00
59513;BME280;45330;51.634;5.562;2023-04-06T05:47:44;101542.16;;;3.48;100.00
59513;BME280;45330;51.634;5.562;2023-04-06T05:50:10;101543.91;;;3.49;100.00
59513;BME280;45330;51.634;5.562;2023-04-06T05:52:36;101529.19;;;3.45;100.00
59513;BME280;45330;51.634;5.562;2023-04-06T05:55:02;101540.81;;;3.59;100.00
59513;BME280;45330;51.634;5.562;2023-04-06T05:57:28;101542.66;;;3.64;100.00
59513;BME280;45330;51.634;5.562;2023-04-06T05:59:53;101541.19;;;3.70;100.00
59513;BME280;45330;51.634;5.562;2023-04-06T06:02:20;101546.66;;;3.81;100.00
59513;BME280;45330;51.634;5.562;2023-04-06T06:04:46;101513.88;;;3.75;100.00
59513;BME280;45330;51.634;5.562;2023-04-06T06:07:12;101524.38;;;3.82;100.00
59513;BME280;45330;51.634;5.562;2023-04-06T06:09:37;101520.16;;;3.84;100.00
59513;BME280;45330;51.634;5.562;2023-04-06T06:12:02;101533.38;;;3.94;100.00
59513;BME280;45330;51.634;5.562;2023-04-06T06:14:28;101527.38;;;3.94;100.00
59513;BME280;45330;51.634;5.562;2023-04-06T06:16:54;101537.94;;;4.03;100.00
59513;BME280;45330;51.634;5.562;2023-04-06T06:19:19;101515.41;;;3.96;100.00
59513;BME280;45330;51.634;5.562;2023-04-06T06:21:45;101520.84;;;4.05;100.00
59513;BME280;45330;51.634;5.562;2023-04-06T06:24:10;101537.66;;;4.21;100.00
59513;BME280;45330;51.634;5.562;2023-04-06T06:26:36;101521.28;;;4.19;100.00
59513;BME280;45330;51.634;5.562;2023-04-06T06:29:02;101514.59;;;4.26;100.00
59513;BME280;45330;51.634;5.562;2023-04-06T06:31:29;101534.03;;;4.43;100.00
59513;BME280;45330;51.634;5.562;2023-04-06T06:33:55;101539.44;;;4.53;100.00
59513;BME280;45330;51.634;5.562;2023-04-06T06:36:21;101557.75;;;4.60;100.00
59513;BME280;45330;51.634;5.562;2023-04-06T06:38:46;101545.06;;;4.68;100.00
59513;BME280;45330;51.634;5.562;2023-04-06T06:41:11;101547.97;;;4.79;100.00
59513;BME280;45330;51.634;5.562;2023-04-06T06:43:37;101547.25;;;4.85;100.00
59513;BME280;45330;51.634;5.562;2023-04-06T06:46:03;101539.69;;;4.91;100.00
59513;BME280;45330;51.634;5.562;2023-04-06T06:48:29;101543.41;;;5.01;100.00
59513;BME280;45330;51.634;5.562;2023-04-06T06:50:55;101543.59;;;5.07;100.00
59513;BME280;45330;51.634;5.562;2023-04-06T06:53:20;101542.19;;;5.18;100.00
59513;BME280;45330;51.634;5.562;2023-04-06T06:55:46;101533.66;;;5.21;100.00
59513;BME280;45330;51.634;5.562;2023-04-06T06:58:11;101543.47;;;5.34;100.00
59513;BME280;45330;51.634;5.562;2023-04-06T07:00:37;101541.03;;;5.39;100.00
59513;BME280;45330;51.634;5.562;2023-04-06T07:03:02;101536.03;;;5.46;100.00
59513;BME280;45330;51.634;5.562;2023-04-06T07:05:28;101528.25;;;5.45;100.00
59513;BME280;45330;51.634;5.562;2023-04-06T07:07:54;101516.03;;;5.38;100.00
59513;BME280;45330;51.634;5.562;2023-04-06T07:10:20;101514.31;;;5.38;100.00
59513;BME280;45330;51.634;5.562;2023-04-06T07:12:45;101512.66;;;5.40;99.00
59513;BME280;45330;51.634;5.562;2023-04-06T07:15:11;101523.22;;;5.49;99.42
59513;BME280;45330;51.634;5.562;2023-04-06T07:17:37;101520.78;;;5.54;98.52
59513;BME280;45330;51.634;5.562;2023-04-06T07:20:02;101507.69;;;5.48;98.54
59513;BME280;45330;51.634;5.562;2023-04-06T07:22:28;101529.69;;;5.67;98.44
59513;BME280;45330;51.634;5.562;2023-04-06T07:24:53;101529.09;;;5.77;97.52
59513;BME280;45330;51.634;5.562;2023-04-06T07:27:20;101502.19;;;5.69;96.65
59513;BME280;45330;51.634;5.562;2023-04-06T07:29:45;101520.59;;;5.83;95.98
59513;BME280;45330;51.634;5.562;2023-04-06T07:32:10;101509.38;;;5.81;97.12
59513;BME280;45330;51.634;5.562;2023-04-06T07:34:36;101524.34;;;5.96;96.77
59513;BME280;45330;51.634;5.562;2023-04-06T07:37:01;101525.53;;;6.09;95.45
59513;BME280;45330;51.634;5.562;2023-04-06T07:39:28;101500.56;;;6.08;95.50
59513;BME280;45330;51.634;5.562;2023-04-06T07:41:53;101527.66;;;6.25;94.90
59513;BME280;45330;51.634;5.562;2023-04-06T07:44:19;101509.56;;;6.25;94.90
59513;BME280;45330;51.634;5.562;2023-04-06T07:46:44;101519.41;;;6.42;93.10
59513;BME280;45330;51.634;5.562;2023-04-06T07:49:10;101523.88;;;6.49;92.46
59513;BME280;45330;51.634;5.562;2023-04-06T07:51:37;101513.50;;;6.47;91.74
59513;BME280;45330;51.634;5.562;2023-04-06T07:54:02;101527.59;;;6.62;90.51
59513;BME280;45330;51.634;5.562;2023-04-06T07:56:28;101527.75;;;6.69;90.21
59513;BME280;45330;51.634;5.562;2023-04-06T07:58:53;101505.22;;;6.64;89.91
59513;BME280;45330;51.634;5.562;2023-04-06T08:01:21;101508.03;;;6.75;88.82
59513;BME280;45330;51.634;5.562;2023-04-06T08:03:46;101506.53;;;6.86;88.64
59513;BME280;45330;51.634;5.562;2023-04-06T08:06:12;101517.03;;;6.94;87.34
59513;BME280;45330;51.634;5.562;2023-04-06T08:08:37;101502.44;;;6.97;86.72
59513;BME280;45330;51.634;5.562;2023-04-06T08:11:03;101510.38;;;7.07;86.99
59513;BME280;45330;51.634;5.562;2023-04-06T08:13:28;101526.19;;;7.22;86.36
59513;BME280;45330;51.634;5.562;2023-04-06T08:15:53;101523.81;;;7.33;86.39
59513;BME280;45330;51.634;5.562;2023-04-06T08:18:19;101523.09;;;7.42;85.92
59513;BME280;45330;51.634;5.562;2023-04-06T08:20:44;101519.78;;;7.50;85.38
59513;BME280;45330;51.634;5.562;2023-04-06T08:23:10;101512.06;;;7.52;85.37
59513;BME280;45330;51.634;5.562;2023-04-06T08:25:36;101521.63;;;7.56;84.54
59513;BME280;45330;51.634;5.562;2023-04-06T08:28:03;101526.72;;;7.50;83.93
59513;BME280;45330;51.634;5.562;2023-04-06T08:30:28;101531.84;;;7.47;84.50
59513;BME280;45330;51.634;5.562;2023-04-06T08:32:54;101522.38;;;7.49;84.71
59513;BME280;45330;51.634;5.562;2023-04-06T08:35:19;101519.81;;;7.52;84.62
59513;BME280;45330;51.634;5.562;2023-04-06T08:37:45;101522.59;;;7.63;84.26
59513;BME280;45330;51.634;5.562;2023-04-06T08:40:11;101529.69;;;7.73;84.05
59513;BME280;45330;51.634;5.562;2023-04-06T08:42:40;101534.03;;;7.76;83.23
59513;BME280;45330;51.634;5.562;2023-04-06T08:45:09;101529.72;;;7.76;82.10
59513;BME280;45330;51.634;5.562;2023-04-06T08:47:36;101526.44;;;7.85;82.78
59513;BME280;45330;51.634;5.562;2023-04-06T08:50:03;101516.91;;;7.84;82.47
59513;BME280;45330;51.634;5.562;2023-04-06T08:52:31;101512.69;;;7.90;82.30
59513;BME280;45330;51.634;5.562;2023-04-06T08:54:58;101520.56;;;7.97;81.22
59513;BME280;45330;51.634;5.562;2023-04-06T08:57:24;101515.44;;;8.01;81.24
59513;BME280;45330;51.634;5.562;2023-04-06T08:59:51;101528.75;;;8.23;80.76
59513;BME280;45330;51.634;5.562;2023-04-06T09:02:18;101520.03;;;8.19;80.51
59513;BME280;45330;51.634;5.562;2023-04-06T09:04:46;101533.31;;;8.41;80.50
59513;BME280;45330;51.634;5.562;2023-04-06T09:07:14;101532.50;;;8.45;81.31
59513;BME280;45330;51.634;5.562;2023-04-06T09:09:39;101517.91;;;8.50;79.20
59513;BME280;45330;51.634;5.562;2023-04-06T09:12:08;101531.97;;;8.68;79.53
59513;BME280;45330;51.634;5.562;2023-04-06T09:14:38;101518.13;;;8.67;78.27
59513;BME280;45330;51.634;5.562;2023-04-06T09:17:04;101535.66;;;8.88;78.01
59513;BME280;45330;51.634;5.562;2023-04-06T09:19:30;101534.16;;;9.04;77.83
59513;BME280;45330;51.634;5.562;2023-04-06T09:22:06;101512.66;;;9.19;78.45
59513;BME280;45330;51.634;5.562;2023-04-06T09:27:10;101536.44;;;9.61;76.60
59513;BME280;45330;51.634;5.562;2023-04-06T09:29:35;101527.00;;;9.72;76.08
59513;BME280;45330;51.634;5.562;2023-04-06T09:32:05;101523.59;;;9.81;76.87
59513;BME280;45330;51.634;5.562;2023-04-06T09:34:32;101529.75;;;9.91;76.62
59513;BME280;45330;51.634;5.562;2023-04-06T09:36:58;101524.59;;;9.97;75.55
59513;BME280;45330;51.634;5.562;2023-04-06T09:39:24;101522.97;;;10.08;75.48
59513;BME280;45330;51.634;5.562;2023-04-06T09:41:51;101530.78;;;10.13;75.28
59513;BME280;45330;51.634;5.562;2023-04-06T09:44:16;101522.97;;;10.11;75.63
59513;BME280;45330;51.634;5.562;2023-04-06T09:46:43;101525.66;;;10.24;76.63
59513;BME280;45330;51.634;5.562;2023-04-06T09:49:10;101526.53;;;10.30;76.98
59513;BME280;45330;51.634;5.562;2023-04-06T09:51:37;101524.97;;;10.48;77.39
59513;BME280;45330;51.634;5.562;2023-04-06T09:54:03;101511.97;;;10.51;76.47
59513;BME280;45330;51.634;5.562;2023-04-06T09:56:56;101530.25;;;10.65;78.01
59513;BME280;45330;51.634;5.562;2023-04-06T09:59:50;101531.09;;;10.64;78.98
59513;BME280;45330;51.634;5.562;2023-04-06T10:07:42;101529.47;;;10.91;78.43
59513;BME280;45330;51.634;5.562;2023-04-06T10:10:10;101533.78;;;10.86;79.49
59513;BME280;45330;51.634;5.562;2023-04-06T10:12:38;101527.72;;;10.79;80.05
59513;BME280;45330;51.634;5.562;2023-04-06T10:15:04;101527.72;;;10.80;82.65
59513;BME280;45330;51.634;5.562;2023-04-06T10:17:30;101523.34;;;10.79;83.07
59513;BME280;45330;51.634;5.562;2023-04-06T10:20:29;101536.38;;;10.73;82.94
59513;BME280;45330;51.634;5.562;2023-04-06T10:23:06;101527.63;;;10.60;85.36
59513;BME280;45330;51.634;5.562;2023-04-06T10:25:33;101536.22;;;10.47;87.20
59513;BME280;45330;51.634;5.562;2023-04-06T10:28:05;101536.09;;;10.32;87.51
59513;BME280;45330;51.634;5.562;2023-04-06T10:30:32;101518.59;;;10.04;88.21
59513;BME280;45330;51.634;5.562;2023-04-06T10:32:58;101518.53;;;9.98;91.70
59513;BME280;45330;51.634;5.562;2023-04-06T10:35:23;101533.31;;;10.05;92.29
59513;BME280;45330;51.634;5.562;2023-04-06T10:38:01;101527.19;;;9.95;92.96
59513;BME280;45330;51.634;5.562;2023-04-06T10:40:27;101515.00;;;9.88;98.27
59513;BME280;45330;51.634;5.562;2023-04-06T10:42:53;101526.19;;;9.76;96.00
59513;BME280;45330;51.634;5.562;2023-04-06T10:45:26;101533.97;;;9.78;95.64
59513;BME280;45330;51.634;5.562;2023-04-06T10:47:54;101533.06;;;9.74;96.34
59513;BME280;45330;51.634;5.562;2023-04-06T10:50:21;101522.66;;;9.70;98.38
59513;BME280;45330;51.634;5.562;2023-04-06T10:52:58;101536.56;;;9.76;96.57
59513;BME280;45330;51.634;5.562;2023-04-06T10:55:25;101527.00;;;9.72;99.52
59513;BME280;45330;51.634;5.562;2023-04-06T10:57:51;101518.25;;;9.61;98.92
59513;BME280;45330;51.634;5.562;2023-04-06T11:00:17;101514.59;;;9.40;100.00
59513;BME280;45330;51.634;5.562;2023-04-06T11:02:43;101526.59;;;9.27;100.00
59513;BME280;45330;51.634;5.562;2023-04-06T11:05:11;101515.09;;;9.04;100.00
59513;BME280;45330;51.634;5.562;2023-04-06T11:07:37;101527.13;;;8.97;100.00
59513;BME280;45330;51.634;5.562;2023-04-06T11:10:02;101515.81;;;8.92;100.00
59513;BME280;45330;51.634;5.562;2023-04-06T11:12:28;101513.28;;;8.98;100.00
59513;BME280;45330;51.634;5.562;2023-04-06T11:15:02;101520.13;;;8.90;100.00
59513;BME280;45330;51.634;5.562;2023-04-06T11:17:36;101500.84;;;8.69;100.00
59513;BME280;45330;51.634;5.562;2023-04-06T11:20:03;101504.09;;;8.51;100.00
59513;BME280;45330;51.634;5.562;2023-04-06T11:22:31;101514.44;;;8.50;100.00
59513;BME280;45330;51.634;5.562;2023-04-06T11:25:07;101514.28;;;8.42;100.00
59513;BME280;45330;51.634;5.562;2023-04-06T11:27:35;101491.56;;;8.24;100.00
59513;BME280;45330;51.634;5.562;2023-04-06T11:30:02;101507.88;;;8.17;100.00
59513;BME280;45330;51.634;5.562;2023-04-06T11:32:28;101482.50;;;7.94;100.00
59513;BME280;45330;51.634;5.562;2023-04-06T11:34:53;101490.31;;;7.97;100.00
59513;BME280;45330;51.634;5.562;2023-04-06T11:37:19;101501.44;;;7.90;100.00
59513;BME280;45330;51.634;5.562;2023-04-06T11:39:51;101501.41;;;7.88;100.00
59513;BME280;45330;51.634;5.562;2023-04-06T11:42:24;101474.47;;;7.77;100.00
59513;BME280;45330;51.634;5.562;2023-04-06T11:44:51;101498.78;;;7.85;100.00
59513;BME280;45330;51.634;5.562;2023-04-06T11:47:18;101490.88;;;7.78;100.00
59513;BME280;45330;51.634;5.562;2023-04-06T11:49:44;101491.72;;;7.73;100.00
59513;BME280;45330;51.634;5.562;2023-04-06T11:52:25;101493.44;;;7.75;100.00
59513;BME280;45330;51.634;5.562;2023-04-06T11:54:52;101476.94;;;7.68;100.00
59513;BME280;45330;51.634;5.562;2023-04-06T11:57:18;101476.19;;;7.75;100.00
59513;BME280;45330;51.634;5.562;2023-04-06T11:59:45;101481.41;;;7.78;100.00
59513;BME280;45330;51.634;5.562;2023-04-06T12:02:10;101468.00;;;8.08;100.00
59513;BME280;45330;51.634;5.562;2023-04-06T12:04:37;101477.00;;;8.34;100.00
59513;BME280;45330;51.634;5.562;2023-04-06T12:07:03;101456.47;;;8.46;100.00
59513;BME280;45330;51.634;5.562;2023-04-06T12:09:29;101468.78;;;8.63;100.00
59513;BME280;45330;51.634;5.562;2023-04-06T12:11:54;101467.94;;;8.65;100.00
59513;BME280;45330;51.634;5.562;2023-04-06T12:14:21;101459.28;;;8.66;100.00
59513;BME280;45330;51.634;5.562;2023-04-06T12:16:46;101441.06;;;8.62;100.00
59513;BME280;45330;51.634;5.562;2023-04-06T12:19:12;101448.19;;;8.77;100.00
59513;BME280;45330;51.634;5.562;2023-04-06T12:21:37;101443.00;;;8.80;100.00
59513;BME280;45330;51.634;5.562;2023-04-06T12:24:04;101457.78;;;8.87;100.00
59513;BME280;45330;51.634;5.562;2023-04-06T12:26:30;101457.88;;;8.93;100.00
59513;BME280;45330;51.634;5.562;2023-04-06T12:28:55;101459.69;;;9.00;100.00
59513;BME280;45330;51.634;5.562;2023-04-06T12:31:22;101457.22;;;9.14;100.00
59513;BME280;45330;51.634;5.562;2023-04-06T12:33:51;101449.63;;;9.39;100.00
59513;BME280;45330;51.634;5.562;2023-04-06T12:36:19;101434.88;;;9.35;100.00
59513;BME280;45330;51.634;5.562;2023-04-06T12:38:46;101440.88;;;9.26;100.00
59513;BME280;45330;51.634;5.562;2023-04-06T12:41:12;101443.50;;;9.31;100.00
59513;BME280;45330;51.634;5.562;2023-04-06T12:43:39;101446.03;;;9.20;100.00
59513;BME280;45330;51.634;5.562;2023-04-06T12:46:04;101453.72;;;9.10;100.00
59513;BME280;45330;51.634;5.562;2023-04-06T12:48:31;101438.84;;;8.94;100.00
59513;BME280;45330;51.634;5.562;2023-04-06T12:51:01;101430.03;;;8.78;100.00
59513;BME280;45330;51.634;5.562;2023-04-06T12:53:27;101447.22;;;8.70;100.00
59513;BME280;45330;51.634;5.562;2023-04-06T12:55:54;101431.47;;;8.53;100.00